Terminal Aerodrome Forecast
Issued by NWS Wichita, KS

Home | Current Version | Previous Version | Text Only | Print | Product List | Glossary On
Versions: 1 2 3 4 5 6 7 8 9 10 11 12 13 14 15 16 17
000
FTUS43 KICT 180500
TAFICT
TAF
KICT 180520Z 1806/1906 08008KT P6SM SCT150 BKN250
     FM181100 09007KT 3SM BR OVC007
     FM181500 12008KT P6SM BKN015
     FM181800 14008KT P6SM FEW040
     FM190100 14008KT P6SM SCT150=

USA.gov is the U.S. government's official web portal to all federal, state and local government web resources and services.